Terminal Aerodrome Forecast
Issued by NWS Duluth, MN

Home | Current Version | Previous Version | Text Only | Print | Product List | Glossary On
Versions: 1 2 3 4 5 6 7 8 9 10 11 12 13 14 15 16 17 18
263
FTUS43 KDLH 260812 AAC
TAFDLH
TAF AMD
KDLH 260812Z 2608/2706 32009KT P6SM SCT011 BKN250
     FM261300 31006KT P6SM SCT018
     FM261800 29008KT P6SM SCT050=

USA.gov is the U.S. government's official web portal to all federal, state and local government web resources and services.